Time;durP1;ratioP1;P1;durP2;ratioP2;P2;SDS_P1;SDS_P2;PMS_P1;PMS_P2;Temp;Humidity;BMP_temperature;BMP_pressure;BME280_temperature;BME280_humidity;BME280_pressure;Samples;Min_cycle;Max_cycle;Signal;HPM_P1;HPM_P2
2023/12/20 00:00:03;0.00;0.00;0.62;0.00;0.00;0.62;1.60;1.00;;;21.90;27.90;;;;;;2264629;61;20388;-57
2023/12/20 00:02:49;0.00;0.00;0.62;0.00;0.00;0.62;2.03;1.33;;;21.90;27.90;;;;;;2264528;61;20460;-56
2023/12/20 00:05:35;0.00;0.00;0.62;0.00;0.00;0.62;1.90;1.00;;;21.90;27.90;;;;;;2264782;61;20360;-54
2023/12/20 00:08:19;0.00;0.00;0.62;0.00;0.00;0.62;1.57;1.10;;;21.90;27.90;;;;;;2264514;61;20380;-56
2023/12/20 00:11:04;0.00;0.00;0.62;0.00;0.00;0.62;2.03;1.20;;;21.90;27.90;;;;;;2264650;61;20383;-54
2023/12/20 00:13:50;0.00;0.00;0.62;0.00;0.00;0.62;1.77;1.13;;;21.90;27.90;;;;;;2264658;61;20403;-55
2023/12/20 00:16:35;0.00;0.00;0.62;0.00;0.00;0.62;1.83;1.20;;;21.90;27.90;;;;;;2264564;61;20415;-59
2023/12/20 00:19:20;0.00;0.00;0.62;0.00;0.00;0.62;1.90;0.90;;;21.90;27.90;;;;;;2265128;61;20419;-55
2023/12/20 00:22:04;0.00;0.00;0.62;0.00;0.00;0.62;1.73;1.10;;;21.90;28.00;;;;;;2264566;61;20368;-52
2023/12/20 00:24:49;0.00;0.00;0.62;0.00;0.00;0.62;1.77;1.23;;;21.90;27.90;;;;;;2264426;61;20419;-58
2023/12/20 00:27:33;0.00;0.00;0.62;0.00;0.00;0.62;1.87;1.07;;;21.90;27.90;;;;;;2264925;61;20364;-54
2023/12/20 00:30:19;0.00;0.00;0.62;0.00;0.00;0.62;1.77;1.10;;;21.90;27.90;;;;;;2264248;61;20384;-54
2023/12/20 00:33:04;0.00;0.00;0.62;0.00;0.00;0.62;1.70;1.17;;;21.90;27.90;;;;;;2264381;61;20418;-56
2023/12/20 00:35:49;0.00;0.00;0.62;0.00;0.00;0.62;1.50;1.00;;;21.90;27.90;;;;;;2264868;61;20391;-57
2023/12/20 00:38:34;0.00;0.00;0.62;0.00;0.00;0.62;1.90;1.23;;;21.90;27.90;;;;;;2264556;61;20430;-55
2023/12/20 00:41:18;0.00;0.00;0.62;0.00;0.00;0.62;1.70;1.00;;;21.90;27.90;;;;;;2264844;61;20412;-55
2023/12/20 00:44:03;0.00;0.00;0.62;0.00;0.00;0.62;1.83;1.17;;;21.90;27.90;;;;;;2264828;61;20364;-50
2023/12/20 00:46:49;0.00;0.00;0.62;0.00;0.00;0.62;1.87;1.10;;;21.90;27.90;;;;;;2264553;61;20797;-56
2023/12/20 00:49:34;0.00;0.00;0.62;0.00;0.00;0.62;1.70;1.00;;;21.90;27.90;;;;;;2264563;61;20388;-57
2023/12/20 00:52:19;0.00;0.00;0.62;0.00;0.00;0.62;1.60;1.13;;;21.90;27.90;;;;;;2263976;61;20367;-50
2023/12/20 00:55:05;0.00;0.00;0.62;0.00;0.00;0.62;1.70;1.10;;;21.90;27.90;;;;;;2261600;61;20916;-55
2023/12/20 00:57:50;0.00;0.00;0.62;0.00;0.00;0.62;2.07;1.33;;;21.90;27.90;;;;;;2264800;61;20367;-55
2023/12/20 01:00:34;0.00;0.00;0.62;0.00;0.00;0.62;2.00;1.07;;;21.90;27.90;;;;;;2264103;61;20407;-53
2023/12/20 01:03:20;0.00;0.00;0.62;0.00;0.00;0.62;1.40;0.80;;;21.90;27.90;;;;;;2264451;61;20368;-53
2023/12/20 01:06:05;0.00;0.00;0.62;0.00;0.00;0.62;2.27;1.20;;;21.90;27.90;;;;;;2261566;61;20888;-54
2023/12/20 01:08:51;0.00;0.00;0.62;0.00;0.00;0.62;1.80;1.10;;;21.90;28.00;;;;;;2264416;61;20427;-51
2023/12/20 01:11:35;0.00;0.00;0.62;0.00;0.00;0.62;1.90;0.87;;;21.90;27.90;;;;;;2264529;61;20384;-60
2023/12/20 01:14:20;0.00;0.00;0.62;0.00;0.00;0.62;1.70;1.20;;;21.90;27.90;;;;;;2264231;61;21144;-52
2023/12/20 01:17:05;0.00;0.00;0.62;0.00;0.00;0.62;2.30;1.33;;;22.00;28.00;;;;;;2264710;61;20369;-51
2023/12/20 01:19:51;0.00;0.00;0.62;0.00;0.00;0.62;2.13;1.03;;;21.90;27.90;;;;;;2264651;61;21095;-55
2023/12/20 01:22:35;0.00;0.00;0.62;0.00;0.00;0.62;1.50;0.90;;;21.90;27.90;;;;;;2263683;61;20364;-54
2023/12/20 01:25:20;0.00;0.00;0.62;0.00;0.00;0.62;1.93;1.00;;;22.00;28.00;;;;;;2263973;61;20927;-53
2023/12/20 01:28:05;0.00;0.00;0.62;0.00;0.00;0.62;1.70;0.90;;;22.00;28.00;;;;;;2260496;61;20616;-55
2023/12/20 01:30:50;0.00;0.00;0.62;0.00;0.00;0.62;2.00;1.10;;;21.90;27.90;;;;;;2260379;61;20424;-54
2023/12/20 01:33:34;0.00;0.00;0.62;0.00;0.00;0.62;1.73;1.00;;;22.00;28.00;;;;;;2260259;61;20388;-57
2023/12/20 01:36:20;0.00;0.00;0.62;0.00;0.00;0.62;1.80;1.10;;;21.90;27.90;;;;;;2260271;61;20365;-53
2023/12/20 01:39:05;0.00;0.00;0.62;0.00;0.00;0.62;1.57;0.97;;;22.00;28.00;;;;;;2260591;61;20385;-55
2023/12/20 01:41:49;0.00;0.00;0.62;0.00;0.00;0.62;1.90;1.10;;;22.00;28.00;;;;;;2260334;61;20412;-56
2023/12/20 01:44:33;0.00;0.00;0.62;0.00;0.00;0.62;1.87;1.20;;;22.00;28.00;;;;;;2260059;61;20376;-56
2023/12/20 01:47:18;0.00;0.00;0.62;0.00;0.00;0.62;1.90;1.17;;;22.00;28.00;;;;;;2260650;61;20360;-52
2023/12/20 01:49:44;0.00;0.00;0.62;0.00;0.00;0.62;2.00;1.03;;;22.00;28.00;;;;;;2260481;61;20393;-52
2023/12/20 01:52:12;0.00;0.00;0.62;0.00;0.00;0.62;1.50;0.90;;;22.00;28.00;;;;;;2259930;61;20388;-52
2023/12/20 01:55:02;0.00;0.00;0.62;0.00;0.00;0.62;1.40;0.80;;;22.00;28.00;;;;;;2257237;61;20770;-57
2023/12/20 01:57:47;0.00;0.00;0.62;0.00;0.00;0.62;2.00;0.83;;;22.00;28.00;;;;;;2260345;61;20357;-54
2023/12/20 02:00:32;0.00;0.00;0.62;0.00;0.00;0.62;1.50;0.90;;;22.00;28.00;;;;;;2260177;61;20418;-51
2023/12/20 02:03:18;0.00;0.00;0.62;0.00;0.00;0.62;1.90;0.97;;;22.10;28.10;;;;;;2260056;61;20395;-57
2023/12/20 02:06:04;0.00;0.00;0.62;0.00;0.00;0.62;1.70;0.90;;;22.00;28.00;;;;;;2260105;61;20456;-53
2023/12/20 02:08:50;0.00;0.00;0.62;0.00;0.00;0.62;1.50;1.00;;;22.00;28.00;;;;;;2257372;61;20389;-51
2023/12/20 02:11:36;0.00;0.00;0.62;0.00;0.00;0.62;1.70;0.90;;;22.10;28.10;;;;;;2260179;61;20369;-53
2023/12/20 02:14:21;0.00;0.00;0.62;0.00;0.00;0.62;2.00;1.20;;;22.10;28.10;;;;;;2259991;61;20886;-57
2023/12/20 02:17:05;0.00;0.00;0.62;0.00;0.00;0.62;2.30;0.90;;;22.10;28.10;;;;;;2260309;61;20368;-56
2023/12/20 02:19:50;0.00;0.00;0.62;0.00;0.00;0.62;1.67;0.93;;;22.10;28.10;;;;;;2260438;61;20414;-55
2023/12/20 02:22:36;0.00;0.00;0.62;0.00;0.00;0.62;2.17;1.20;;;22.10;28.10;;;;;;2259931;61;20411;-55
2023/12/20 02:25:20;0.00;0.00;0.62;0.00;0.00;0.62;1.70;1.07;;;22.10;28.10;;;;;;2260637;61;20492;-53
2023/12/20 02:28:06;0.00;0.00;0.62;0.00;0.00;0.62;1.43;0.77;;;22.10;28.10;;;;;;2496785;53;20368;-60
2023/12/20 02:30:51;0.00;0.00;0.62;0.00;0.00;0.62;1.60;1.00;;;22.10;28.10;;;;;;2260287;61;20388;-52
2023/12/20 02:33:36;0.00;0.00;0.62;0.00;0.00;0.62;2.10;1.00;;;22.10;28.00;;;;;;2260165;61;20415;-56
2023/12/20 02:36:20;0.00;0.00;0.62;0.00;0.00;0.62;1.50;0.90;;;22.10;28.00;;;;;;2260775;61;20387;-53
2023/12/20 02:39:07;0.00;0.00;0.62;0.00;0.00;0.62;2.50;1.10;;;22.10;28.00;;;;;;2261055;61;20392;-55
2023/12/20 02:41:51;0.00;0.00;0.62;0.00;0.00;0.62;2.83;1.10;;;22.10;28.00;;;;;;2260675;61;20356;-56
2023/12/20 02:44:36;0.00;0.00;0.62;0.00;0.00;0.62;1.70;1.00;;;22.10;28.00;;;;;;2264488;61;20375;-54
2023/12/20 02:47:21;0.00;0.00;0.62;0.00;0.00;0.62;2.83;1.00;;;22.10;27.90;;;;;;2257936;58;20383;-54
2023/12/20 02:50:06;0.00;0.00;0.62;0.00;0.00;0.62;1.80;0.90;;;22.10;27.90;;;;;;2265123;61;20399;-52
2023/12/20 02:52:51;0.00;0.00;0.62;0.00;0.00;0.62;2.93;1.47;;;22.10;27.90;;;;;;2264639;61;20410;-57
2023/12/20 02:55:37;0.00;0.00;0.62;0.00;0.00;0.62;1.60;1.00;;;22.10;27.90;;;;;;2265204;61;20452;-49
2023/12/20 02:58:21;0.00;0.00;0.62;0.00;0.00;0.62;1.40;0.73;;;22.10;27.90;;;;;;2264765;61;20790;-53
2023/12/20 03:01:06;0.00;0.00;0.62;0.00;0.00;0.62;1.70;0.87;;;22.10;27.90;;;;;;2265222;61;20363;-56
2023/12/20 03:03:50;0.00;0.00;0.62;0.00;0.00;0.62;1.63;0.80;;;22.10;27.90;;;;;;2264548;61;20760;-54
2023/12/20 03:06:35;0.00;0.00;0.62;0.00;0.00;0.62;1.40;0.80;;;22.00;27.80;;;;;;2264747;61;20417;-53
2023/12/20 03:09:19;0.00;0.00;0.62;0.00;0.00;0.62;1.50;0.80;;;22.10;27.90;;;;;;2264997;61;20591;-58
2023/12/20 03:12:06;0.00;0.00;0.62;0.00;0.00;0.62;1.80;1.00;;;22.10;27.90;;;;;;2264708;61;20502;-54
2023/12/20 03:14:50;0.00;0.00;0.62;0.00;0.00;0.62;2.00;1.00;;;22.10;27.90;;;;;;2264885;61;20425;-53
2023/12/20 03:17:35;0.00;0.00;0.62;0.00;0.00;0.62;1.43;0.70;;;22.00;27.80;;;;;;2259318;61;20368;-51
2023/12/20 03:20:19;0.00;0.00;0.62;0.00;0.00;0.62;2.07;0.90;;;22.00;27.80;;;;;;2264501;61;20383;-54
2023/12/20 03:23:04;0.00;0.00;0.62;0.00;0.00;0.62;1.60;0.80;;;22.00;27.80;;;;;;2264637;61;20359;-55
2023/12/20 03:25:49;0.00;0.00;0.62;0.00;0.00;0.62;3.20;1.10;;;22.00;27.80;;;;;;2264975;61;20376;-55
2023/12/20 03:28:36;0.00;0.00;0.62;0.00;0.00;0.62;1.60;0.80;;;22.00;27.80;;;;;;2264588;61;20917;-54
2023/12/20 03:31:21;0.00;0.00;0.62;0.00;0.00;0.62;1.70;0.90;;;22.00;27.80;;;;;;2265018;61;20467;-55
2023/12/20 03:34:06;0.00;0.00;0.62;0.00;0.00;0.62;2.17;0.70;;;22.00;27.80;;;;;;2265377;61;20367;-51
2023/12/20 03:36:51;0.00;0.00;0.62;0.00;0.00;0.62;1.73;0.97;;;22.00;27.80;;;;;;2264748;61;20438;-53
2023/12/20 03:39:35;0.00;0.00;0.62;0.00;0.00;0.62;2.37;1.07;;;22.00;27.80;;;;;;2265001;61;20399;-58
2023/12/20 03:42:20;0.00;0.00;0.62;0.00;0.00;0.62;1.40;0.80;;;22.00;27.80;;;;;;2264194;61;20399;-55
2023/12/20 03:45:09;0.00;0.00;0.62;0.00;0.00;0.62;1.67;0.73;;;22.00;28.30;;;;;;2265086;61;20364;-52
2023/12/20 03:47:55;0.00;0.00;0.62;0.00;0.00;0.62;1.53;0.80;;;22.00;27.80;;;;;;2265004;61;20372;-55
2023/12/20 03:50:39;0.00;0.00;0.62;0.00;0.00;0.62;1.50;0.70;;;22.00;27.80;;;;;;2264741;61;20360;-54
2023/12/20 03:53:23;0.00;0.00;0.62;0.00;0.00;0.62;1.30;0.70;;;22.00;27.80;;;;;;2264747;61;20363;-53
2023/12/20 03:56:08;0.00;0.00;0.62;0.00;0.00;0.62;2.03;0.90;;;21.90;27.70;;;;;;2265065;61;20360;-55
2023/12/20 03:58:53;0.00;0.00;0.62;0.00;0.00;0.62;1.80;0.90;;;21.90;27.70;;;;;;2264561;61;20797;-57
2023/12/20 04:01:43;0.00;0.00;0.62;0.00;0.00;0.62;1.70;0.80;;;21.90;27.70;;;;;;2264635;61;20419;-56
2023/12/20 04:04:28;0.00;0.00;0.62;0.00;0.00;0.62;1.50;0.83;;;21.90;27.70;;;;;;2264655;61;20368;-50
2023/12/20 04:07:12;0.00;0.00;0.62;0.00;0.00;0.62;3.67;0.90;;;21.90;27.70;;;;;;2264787;61;20392;-53
2023/12/20 04:09:57;0.00;0.00;0.62;0.00;0.00;0.62;2.17;0.93;;;21.90;27.70;;;;;;2264921;61;20410;-56
2023/12/20 04:12:41;0.00;0.00;0.62;0.00;0.00;0.62;1.43;0.70;;;21.90;28.20;;;;;;2264329;61;20411;-54
2023/12/20 04:15:26;0.00;0.00;0.62;0.00;0.00;0.62;1.80;0.73;;;21.90;27.70;;;;;;2264987;61;20356;-56
2023/12/20 04:18:12;0.00;0.00;0.62;0.00;0.00;0.62;1.50;0.80;;;21.90;27.70;;;;;;2265092;61;20364;-53
2023/12/20 04:20:56;0.00;0.00;0.62;0.00;0.00;0.62;1.53;0.93;;;21.90;27.70;;;;;;2264450;61;20840;-56
2023/12/20 04:23:41;0.00;0.00;0.62;0.00;0.00;0.62;1.40;0.80;;;21.90;27.70;;;;;;2264426;61;20406;-54
2023/12/20 04:26:26;0.00;0.00;0.62;0.00;0.00;0.62;1.70;0.70;;;21.90;27.70;;;;;;2264552;61;20376;-57
2023/12/20 04:29:10;0.00;0.00;0.62;0.00;0.00;0.62;1.93;0.80;;;21.90;27.70;;;;;;2264774;61;20464;-54
2023/12/20 04:31:55;0.00;0.00;0.62;0.00;0.00;0.62;1.40;0.80;;;21.90;27.70;;;;;;2264545;61;20426;-57
2023/12/20 04:34:41;0.00;0.00;0.62;0.00;0.00;0.62;1.90;0.93;;;21.90;27.70;;;;;;2264515;61;20402;-55
2023/12/20 04:37:26;0.00;0.00;0.62;0.00;0.00;0.62;1.73;0.80;;;21.90;27.70;;;;;;2261563;61;20892;-53
2023/12/20 04:40:11;0.00;0.00;0.62;0.00;0.00;0.62;1.30;0.70;;;21.90;27.70;;;;;;2264873;61;20450;-57
2023/12/20 04:42:56;0.00;0.00;0.62;0.00;0.00;0.62;4.73;0.80;;;21.90;27.70;;;;;;2263956;61;20908;-55
2023/12/20 04:45:40;0.00;0.00;0.62;0.00;0.00;0.62;1.50;0.70;;;21.90;27.80;;;;;;2260914;61;20445;-53
2023/12/20 04:48:25;0.00;0.00;0.62;0.00;0.00;0.62;2.73;1.20;;;21.90;27.90;;;;;;2264939;61;20388;-51
2023/12/20 04:51:11;0.00;0.00;0.62;0.00;0.00;0.62;2.00;0.97;;;21.90;27.70;;;;;;2264848;61;20376;-55
2023/12/20 04:53:57;0.00;0.00;0.62;0.00;0.00;0.62;1.60;0.80;;;21.80;27.60;;;;;;2264647;61;20372;-50
2023/12/20 04:56:42;0.00;0.00;0.62;0.00;0.00;0.62;1.90;0.90;;;21.80;27.60;;;;;;2264501;61;20456;-54
2023/12/20 04:59:26;0.00;0.00;0.62;0.00;0.00;0.62;2.00;0.77;;;21.80;27.60;;;;;;2264883;61;20907;-59
2023/12/20 05:02:11;0.00;0.00;0.62;0.00;0.00;0.62;3.33;1.20;;;21.80;27.60;;;;;;2264570;61;20367;-56
2023/12/20 05:04:56;0.00;0.00;0.62;0.00;0.00;0.62;2.50;1.00;;;21.80;27.60;;;;;;2264194;61;20349;-55
2023/12/20 05:07:42;0.00;0.00;0.62;0.00;0.00;0.62;2.57;1.00;;;21.80;27.70;;;;;;2264764;61;20364;-51
2023/12/20 05:10:27;0.00;0.00;0.62;0.00;0.00;0.62;3.30;1.30;;;21.80;27.60;;;;;;2264742;61;20399;-53
2023/12/20 05:13:11;0.00;0.00;0.62;0.00;0.00;0.62;2.30;0.83;;;21.80;27.60;;;;;;2264233;61;20368;-56
2023/12/20 05:15:56;0.00;0.00;0.62;0.00;0.00;0.62;2.40;0.93;;;21.80;27.60;;;;;;2264574;61;20390;-56
2023/12/20 05:18:40;0.00;0.00;0.62;0.00;0.00;0.62;2.43;0.93;;;21.80;27.70;;;;;;2264454;61;20375;-53
2023/12/20 05:21:25;0.00;0.00;0.62;0.00;0.00;0.62;2.20;1.10;;;21.80;27.70;;;;;;2261158;61;20380;-54
2023/12/20 05:24:11;0.00;0.00;0.62;0.00;0.00;0.62;1.40;0.90;;;21.80;27.70;;;;;;2261563;61;20360;-57
2023/12/20 05:26:55;0.00;0.00;0.62;0.00;0.00;0.62;1.60;0.80;;;21.80;27.60;;;;;;2264415;61;20416;-52
2023/12/20 05:29:40;0.00;0.00;0.62;0.00;0.00;0.62;2.60;1.10;;;21.80;27.70;;;;;;2264579;61;20389;-53
2023/12/20 05:32:25;0.00;0.00;0.62;0.00;0.00;0.62;2.17;1.20;;;21.80;27.60;;;;;;2261209;61;20953;-56
2023/12/20 05:35:10;0.00;0.00;0.62;0.00;0.00;0.62;1.97;1.27;;;21.80;27.60;;;;;;2264573;61;20375;-57
2023/12/20 05:37:54;0.00;0.00;0.62;0.00;0.00;0.62;1.80;1.03;;;21.80;27.60;;;;;;2261352;61;20368;-55
2023/12/20 05:40:40;0.00;0.00;0.62;0.00;0.00;0.62;2.00;1.30;;;21.80;27.70;;;;;;2264476;61;20440;-53
2023/12/20 05:43:25;0.00;0.00;0.62;0.00;0.00;0.62;2.03;1.13;;;21.80;27.70;;;;;;2264121;61;20817;-50
2023/12/20 05:46:11;0.00;0.00;0.62;0.00;0.00;0.62;2.03;1.10;;;21.80;27.70;;;;;;2264763;61;20364;-54
2023/12/20 05:48:56;0.00;0.00;0.62;0.00;0.00;0.62;2.17;1.13;;;21.70;27.60;;;;;;2264449;61;20441;-58
2023/12/20 05:51:40;0.00;0.00;0.62;0.00;0.00;0.62;2.03;1.23;;;21.70;28.10;;;;;;2264471;61;20368;-57
2023/12/20 05:54:25;0.00;0.00;0.62;0.00;0.00;0.62;2.00;1.20;;;21.80;27.60;;;;;;2264987;61;20426;-51
2023/12/20 05:57:11;0.00;0.00;0.62;0.00;0.00;0.62;2.57;1.43;;;21.80;27.60;;;;;;2264188;61;20364;-55
2023/12/20 05:59:56;0.00;0.00;0.62;0.00;0.00;0.62;2.40;1.57;;;21.70;27.60;;;;;;2261348;61;20402;-53
2023/12/20 06:02:41;0.00;0.00;0.62;0.00;0.00;0.62;2.10;1.20;;;21.70;28.10;;;;;;2264196;61;20376;-59
2023/12/20 06:05:26;0.00;0.00;0.62;0.00;0.00;0.62;2.37;1.60;;;21.70;28.10;;;;;;2264639;61;20457;-55
2023/12/20 06:08:11;0.00;0.00;0.62;0.00;0.00;0.62;2.63;1.50;;;21.70;27.60;;;;;;2264506;61;20355;-53
2023/12/20 06:10:55;0.00;0.00;0.62;0.00;0.00;0.62;3.03;1.60;;;21.70;27.60;;;;;;2264070;61;20773;-54
2023/12/20 06:13:41;0.00;0.00;0.62;0.00;0.00;0.62;4.70;2.20;;;21.70;27.60;;;;;;2264333;61;20381;-58
2023/12/20 06:16:26;0.00;0.00;0.62;0.00;0.00;0.62;2.70;1.60;;;21.70;27.60;;;;;;2264834;61;20382;-55
2023/12/20 06:19:10;0.00;0.00;0.62;0.00;0.00;0.62;2.67;1.60;;;21.70;28.10;;;;;;2264263;61;20923;-54
2023/12/20 06:21:55;0.00;0.00;0.62;0.00;0.00;0.62;2.40;1.50;;;21.70;27.60;;;;;;2264227;61;20372;-56
2023/12/20 06:24:39;0.00;0.00;0.62;0.00;0.00;0.62;3.37;2.07;;;21.70;27.60;;;;;;2264703;61;20908;-53
2023/12/20 06:27:24;0.00;0.00;0.62;0.00;0.00;0.62;2.90;2.07;;;21.70;27.60;;;;;;2264478;61;20899;-55
2023/12/20 06:30:11;0.00;0.00;0.62;0.00;0.00;0.62;2.43;1.93;;;21.70;27.60;;;;;;2264299;61;20392;-50
2023/12/20 06:32:57;0.00;0.00;0.62;0.00;0.00;0.62;3.40;2.00;;;21.70;27.60;;;;;;2259643;61;20381;-55
2023/12/20 06:35:42;0.00;0.00;0.62;0.00;0.00;0.62;4.20;3.00;;;21.70;27.50;;;;;;2260529;61;20407;-55
2023/12/20 06:38:26;0.00;0.00;0.62;0.00;0.00;0.62;3.93;2.10;;;21.70;27.50;;;;;;2260227;61;20976;-55
2023/12/20 06:41:14;0.00;0.00;0.62;0.00;0.00;0.62;2.73;1.60;;;21.70;27.60;;;;;;2260036;61;20426;-53
2023/12/20 06:43:58;0.00;0.00;0.62;0.00;0.00;0.62;4.90;2.43;;;21.70;27.50;;;;;;2260001;61;20400;-55
2023/12/20 06:46:44;0.00;0.00;0.62;0.00;0.00;0.62;3.50;2.50;;;21.60;27.50;;;;;;2260442;61;20411;-56
2023/12/20 06:49:29;0.00;0.00;0.62;0.00;0.00;0.62;4.40;2.77;;;21.70;27.50;;;;;;2260151;61;20393;-50
2023/12/20 06:52:14;0.00;0.00;0.62;0.00;0.00;0.62;5.17;2.60;;;21.70;27.50;;;;;;2260211;61;20368;-56
2023/12/20 06:54:58;0.00;0.00;0.62;0.00;0.00;0.62;4.73;2.17;;;21.60;27.40;;;;;;2259920;61;20435;-52
2023/12/20 06:57:43;0.00;0.00;0.62;0.00;0.00;0.62;3.27;2.40;;;21.70;27.50;;;;;;2260557;61;20932;-54
2023/12/20 07:00:28;0.00;0.00;0.62;0.00;0.00;0.62;2.90;1.87;;;21.60;27.50;;;;;;2260300;61;20897;-53
2023/12/20 07:03:14;0.00;0.00;0.62;0.00;0.00;0.62;4.70;2.40;;;21.60;27.50;;;;;;2259671;61;20365;-53
2023/12/20 07:05:59;0.00;0.00;0.62;0.00;0.00;0.62;3.40;2.33;;;21.70;27.50;;;;;;2260420;61;20365;-52
2023/12/20 07:08:45;0.00;0.00;0.62;0.00;0.00;0.62;4.23;2.40;;;21.60;27.50;;;;;;2260388;61;20385;-55
2023/12/20 07:11:29;0.00;0.00;0.62;0.00;0.00;0.62;3.50;2.27;;;21.60;27.50;;;;;;2260019;61;20436;-53
2023/12/20 07:14:14;0.00;0.00;0.62;0.00;0.00;0.62;3.10;2.30;;;21.60;27.40;;;;;;2260657;61;20416;-56
2023/12/20 07:16:58;0.00;0.00;0.62;0.00;0.00;0.62;3.50;2.27;;;21.60;27.50;;;;;;2259924;61;20365;-54
2023/12/20 07:19:44;0.00;0.00;0.62;0.00;0.00;0.62;3.87;2.70;;;21.60;27.50;;;;;;2260437;61;20404;-55
2023/12/20 07:22:33;0.00;0.00;0.62;0.00;0.00;0.62;3.30;2.10;;;21.60;27.40;;;;;;2261266;61;20393;-55
2023/12/20 07:25:20;0.00;0.00;0.62;0.00;0.00;0.62;3.73;2.50;;;21.60;27.40;;;;;;2261182;61;20830;-53
2023/12/20 07:28:05;0.00;0.00;0.62;0.00;0.00;0.62;3.43;2.20;;;21.60;27.40;;;;;;2261223;61;20391;-55
2023/12/20 07:30:50;0.00;0.00;0.62;0.00;0.00;0.62;3.20;2.50;;;21.60;27.40;;;;;;2262396;61;20937;-57
2023/12/20 07:33:35;0.00;0.00;0.62;0.00;0.00;0.62;3.63;2.33;;;21.60;27.50;;;;;;2264826;61;20453;-55
2023/12/20 07:36:22;0.00;0.00;0.62;0.00;0.00;0.62;3.50;2.57;;;21.60;27.50;;;;;;2265934;61;20371;-53
2023/12/20 07:39:08;0.00;0.00;0.62;0.00;0.00;0.62;4.80;3.17;;;21.60;28.00;;;;;;2265460;61;20376;-55
2023/12/20 07:41:52;0.00;0.00;0.62;0.00;0.00;0.62;3.70;2.50;;;21.60;27.40;;;;;;2264812;61;20364;-55
2023/12/20 07:44:37;0.00;0.00;0.62;0.00;0.00;0.62;4.20;2.77;;;21.60;27.50;;;;;;2265024;61;20410;-52
2023/12/20 07:47:21;0.00;0.00;0.62;0.00;0.00;0.62;4.23;2.73;;;21.60;27.50;;;;;;2264511;61;20758;-55
2023/12/20 07:50:06;0.00;0.00;0.62;0.00;0.00;0.62;6.23;2.80;;;21.60;27.50;;;;;;2265046;61;20430;-52
2023/12/20 07:52:53;0.00;0.00;0.62;0.00;0.00;0.62;3.93;2.57;;;21.60;27.50;;;;;;2264372;61;20780;-53
2023/12/20 07:55:38;0.00;0.00;0.62;0.00;0.00;0.62;4.90;3.50;;;21.60;27.50;;;;;;2264423;61;20368;-56
2023/12/20 07:58:23;0.00;0.00;0.62;0.00;0.00;0.62;5.60;3.00;;;21.60;27.40;;;;;;2264969;61;20359;-55
2023/12/20 08:01:08;0.00;0.00;0.62;0.00;0.00;0.62;5.40;3.30;;;21.60;27.40;;;;;;2264467;61;20352;-58
2023/12/20 08:03:52;0.00;0.00;0.62;0.00;0.00;0.62;5.03;3.13;;;21.60;27.40;;;;;;2264530;61;20368;-53
2023/12/20 08:06:37;0.00;0.00;0.62;0.00;0.00;0.62;5.67;2.77;;;21.60;27.40;;;;;;2264686;61;20364;-51
2023/12/20 08:09:26;0.00;0.00;0.62;0.00;0.00;0.62;4.83;3.07;;;21.60;27.40;;;;;;2264600;61;20384;-52
2023/12/20 08:12:14;0.00;0.00;0.62;0.00;0.00;0.62;5.83;3.83;;;21.60;27.40;;;;;;2265616;61;20380;-56
2023/12/20 08:14:59;0.00;0.00;0.62;0.00;0.00;0.62;4.97;2.80;;;21.60;27.40;;;;;;2265761;61;21018;-49
2023/12/20 08:17:44;0.00;0.00;0.62;0.00;0.00;0.62;4.33;3.43;;;21.60;27.50;;;;;;2264457;61;20364;-55
2023/12/20 08:20:29;0.00;0.00;0.62;0.00;0.00;0.62;4.87;3.43;;;21.50;27.40;;;;;;2265481;61;20388;-51
2023/12/20 08:23:17;0.00;0.00;0.62;0.00;0.00;0.62;4.83;3.67;;;21.50;27.40;;;;;;2259257;61;20395;-54
2023/12/20 08:26:07;0.00;0.00;0.62;0.00;0.00;0.62;5.07;2.90;;;21.50;27.40;;;;;;2265836;61;20442;-57
2023/12/20 08:28:52;0.00;0.00;0.62;0.00;0.00;0.62;5.87;3.83;;;21.50;27.40;;;;;;2261384;61;20462;-55
2023/12/20 08:31:37;0.00;0.00;0.62;0.00;0.00;0.62;5.03;3.80;;;21.50;27.40;;;;;;2260907;61;20447;-52
2023/12/20 08:34:24;0.00;0.00;0.62;0.00;0.00;0.62;4.83;3.20;;;21.50;27.40;;;;;;2261549;61;20365;-52
2023/12/20 08:37:09;0.00;0.00;0.62;0.00;0.00;0.62;4.73;3.10;;;21.50;27.40;;;;;;2258385;61;20388;-53
2023/12/20 08:39:56;0.00;0.00;0.62;0.00;0.00;0.62;6.73;3.47;;;21.50;27.40;;;;;;2260713;61;20389;-55
2023/12/20 08:42:42;0.00;0.00;0.62;0.00;0.00;0.62;5.30;2.80;;;21.50;27.40;;;;;;2260881;61;20369;-54
2023/12/20 08:45:28;0.00;0.00;0.62;0.00;0.00;0.62;4.37;3.13;;;21.50;27.40;;;;;;2257960;61;20365;-55
2023/12/20 08:48:14;0.00;0.00;0.62;0.00;0.00;0.62;5.97;3.87;;;21.50;27.40;;;;;;2261221;61;20353;-55
2023/12/20 08:51:00;0.00;0.00;0.62;0.00;0.00;0.62;4.20;3.30;;;21.50;27.40;;;;;;2261246;61;21059;-52
2023/12/20 08:53:47;0.00;0.00;0.62;0.00;0.00;0.62;4.10;2.53;;;21.50;27.40;;;;;;2260958;61;20405;-53
2023/12/20 08:56:33;0.00;0.00;0.62;0.00;0.00;0.62;3.87;2.97;;;21.50;27.40;;;;;;2261425;61;20364;-53
2023/12/20 08:59:20;0.00;0.00;0.62;0.00;0.00;0.62;5.20;3.43;;;21.50;27.40;;;;;;2261263;61;20380;-55
2023/12/20 09:02:06;0.00;0.00;0.62;0.00;0.00;0.62;5.13;3.67;;;21.50;27.40;;;;;;2260648;61;20373;-56
2023/12/20 09:04:51;0.00;0.00;0.62;0.00;0.00;0.62;4.33;3.33;;;21.50;27.40;;;;;;2261207;61;20786;-54
2023/12/20 09:07:36;0.00;0.00;0.62;0.00;0.00;0.62;4.07;2.93;;;21.50;27.40;;;;;;2260655;61;20443;-55
2023/12/20 09:10:23;0.00;0.00;0.62;0.00;0.00;0.62;5.10;2.97;;;21.50;27.40;;;;;;2261036;61;20420;-56
2023/12/20 09:13:08;0.00;0.00;0.62;0.00;0.00;0.62;4.63;2.83;;;21.50;27.40;;;;;;2257569;61;20403;-52
2023/12/20 09:15:54;0.00;0.00;0.62;0.00;0.00;0.62;5.07;3.10;;;21.50;27.40;;;;;;2260420;61;20476;-52
2023/12/20 09:18:39;0.00;0.00;0.62;0.00;0.00;0.62;3.37;2.27;;;21.50;27.40;;;;;;2260715;61;20407;-55
2023/12/20 09:21:23;0.00;0.00;0.62;0.00;0.00;0.62;3.70;2.60;;;21.50;27.40;;;;;;2260680;61;20437;-52
2023/12/20 09:24:09;0.00;0.00;0.62;0.00;0.00;0.62;8.10;3.43;;;21.50;27.40;;;;;;2260137;61;20889;-51
2023/12/20 09:26:54;0.00;0.00;0.62;0.00;0.00;0.62;3.73;2.70;;;21.50;27.40;;;;;;2260835;61;20453;-52
2023/12/20 09:29:38;0.00;0.00;0.62;0.00;0.00;0.62;3.57;2.40;;;21.50;27.40;;;;;;2260411;61;20417;-52
2023/12/20 09:32:24;0.00;0.00;0.62;0.00;0.00;0.62;4.30;2.70;;;21.50;27.40;;;;;;2260302;61;20376;-53
2023/12/20 09:35:09;0.00;0.00;0.62;0.00;0.00;0.62;5.03;2.70;;;21.40;27.30;;;;;;2260436;61;20372;-52
2023/12/20 09:37:53;0.00;0.00;0.62;0.00;0.00;0.62;5.33;2.60;;;21.50;27.30;;;;;;2260258;61;20412;-52
2023/12/20 09:40:41;0.00;0.00;0.62;0.00;0.00;0.62;5.23;2.77;;;21.50;27.30;;;;;;2260639;61;20888;-55
2023/12/20 09:43:28;0.00;0.00;0.62;0.00;0.00;0.62;5.07;3.17;;;21.40;27.30;;;;;;2260240;61;20372;-53
2023/12/20 09:46:17;0.00;0.00;0.62;0.00;0.00;0.62;4.30;3.17;;;21.50;27.30;;;;;;2260292;61;20373;-55
2023/12/20 09:49:03;0.00;0.00;0.62;0.00;0.00;0.62;4.30;3.00;;;21.50;27.30;;;;;;2260639;61;20438;-50
2023/12/20 09:51:49;0.00;0.00;0.62;0.00;0.00;0.62;4.53;3.23;;;21.50;27.30;;;;;;2260161;61;20365;-57
2023/12/20 09:54:34;0.00;0.00;0.62;0.00;0.00;0.62;5.73;4.03;;;21.50;27.30;;;;;;2257229;61;20372;-52
2023/12/20 09:57:19;0.00;0.00;0.62;0.00;0.00;0.62;6.70;4.60;;;21.50;27.30;;;;;;2260416;61;20443;-54
2023/12/20 10:00:06;0.00;0.00;0.62;0.00;0.00;0.62;5.77;4.47;;;21.50;27.30;;;;;;2260151;61;20871;-52
2023/12/20 10:02:58;0.00;0.00;0.62;0.00;0.00;0.62;6.40;4.93;;;21.40;27.20;;;;;;2260170;61;20368;-55
2023/12/20 10:05:44;0.00;0.00;0.62;0.00;0.00;0.62;6.50;4.03;;;21.50;27.30;;;;;;2260518;61;20436;-52
2023/12/20 10:08:30;0.00;0.00;0.62;0.00;0.00;0.62;5.70;4.07;;;21.50;27.30;;;;;;2260246;61;20951;-51
2023/12/20 10:11:14;0.00;0.00;0.62;0.00;0.00;0.62;7.50;5.13;;;21.40;27.20;;;;;;2260400;61;20361;-51
2023/12/20 10:14:01;0.00;0.00;0.62;0.00;0.00;0.62;10.00;5.10;;;21.40;27.20;;;;;;2259835;61;20373;-55
2023/12/20 10:16:46;0.00;0.00;0.62;0.00;0.00;0.62;6.50;5.00;;;21.40;27.20;;;;;;2260471;61;20361;-51
2023/12/20 10:19:32;0.00;0.00;0.62;0.00;0.00;0.62;5.83;4.57;;;21.40;27.80;;;;;;2260515;61;21012;-53
2023/12/20 10:22:18;0.00;0.00;0.62;0.00;0.00;0.62;6.50;5.40;;;21.50;27.30;;;;;;2259740;61;20427;-52
2023/12/20 10:25:03;0.00;0.00;0.62;0.00;0.00;0.62;6.00;4.60;;;21.50;27.30;;;;;;2260420;61;20372;-55
2023/12/20 10:27:49;0.00;0.00;0.62;0.00;0.00;0.62;5.53;4.50;;;21.50;27.30;;;;;;2260498;61;20369;-56
2023/12/20 10:30:34;0.00;0.00;0.62;0.00;0.00;0.62;6.90;4.87;;;21.40;27.20;;;;;;2259977;61;20439;-53
2023/12/20 10:33:25;0.00;0.00;0.62;0.00;0.00;0.62;6.63;5.00;;;21.50;27.30;;;;;;2260154;61;20361;-53
2023/12/20 10:36:09;0.00;0.00;0.62;0.00;0.00;0.62;6.00;4.80;;;21.40;27.20;;;;;;2260334;61;20445;-52
2023/12/20 10:38:59;0.00;0.00;0.62;0.00;0.00;0.62;6.90;4.93;;;21.50;27.30;;;;;;2260208;61;20487;-53
2023/12/20 10:41:45;0.00;0.00;0.62;0.00;0.00;0.62;6.23;4.40;;;21.50;27.30;;;;;;2259905;61;20361;-54
2023/12/20 10:44:29;0.00;0.00;0.62;0.00;0.00;0.62;5.17;4.57;;;21.40;27.20;;;;;;2260307;61;20364;-52
2023/12/20 10:47:15;0.00;0.00;0.62;0.00;0.00;0.62;6.67;4.83;;;21.50;27.30;;;;;;2260313;61;20365;-51
2023/12/20 10:50:01;0.00;0.00;0.62;0.00;0.00;0.62;6.20;4.27;;;21.40;27.20;;;;;;2257183;61;20409;-55